sensor_id;sensor_type;location;lat;lon;timestamp;pressure;altitude;pressure_sealevel;temperature;humidity
21980;BME280;11154;48.558;9.234;2023-04-25T00:00:16;96933.28;;;13.43;67.42
21980;BME280;11154;48.558;9.234;2023-04-25T00:02:17;96925.84;;;13.39;68.08
21980;BME280;11154;48.558;9.234;2023-04-25T00:04:19;96927.88;;;13.37;67.91
21980;BME280;11154;48.558;9.234;2023-04-25T00:06:21;96921.28;;;13.33;67.43
21980;BME280;11154;48.558;9.234;2023-04-25T00:08:26;96921.22;;;13.26;67.91
21980;BME280;11154;48.558;9.234;2023-04-25T00:10:28;96926.06;;;13.16;70.75
21980;BME280;11154;48.558;9.234;2023-04-25T00:12:29;96929.50;;;13.10;73.08
21980;BME280;11154;48.558;9.234;2023-04-25T00:14:33;96931.91;;;13.05;74.68
21980;BME280;11154;48.558;9.234;2023-04-25T00:16:35;96931.06;;;13.05;74.56
21980;BME280;11154;48.558;9.234;2023-04-25T00:18:37;96938.72;;;13.08;75.14
21980;BME280;11154;48.558;9.234;2023-04-25T00:20:38;96933.38;;;13.08;74.31
21980;BME280;11154;48.558;9.234;2023-04-25T00:22:40;96933.94;;;13.03;73.78
21980;BME280;11154;48.558;9.234;2023-04-25T00:24:42;96939.47;;;13.02;71.81
21980;BME280;11154;48.558;9.234;2023-04-25T00:26:43;96936.97;;;13.00;70.85
21980;BME280;11154;48.558;9.234;2023-04-25T00:28:45;96934.13;;;13.02;70.71
21980;BME280;11154;48.558;9.234;2023-04-25T00:30:48;96929.28;;;13.12;69.81
21980;BME280;11154;48.558;9.234;2023-04-25T00:32:50;96928.94;;;13.15;69.27
21980;BME280;11154;48.558;9.234;2023-04-25T00:34:52;96925.66;;;13.19;69.07
21980;BME280;11154;48.558;9.234;2023-04-25T00:36:53;96921.41;;;13.25;68.75
21980;BME280;11154;48.558;9.234;2023-04-25T00:38:55;96920.00;;;13.29;68.50
21980;BME280;11154;48.558;9.234;2023-04-25T00:40:57;96911.81;;;13.30;68.34
21980;BME280;11154;48.558;9.234;2023-04-25T00:42:58;96924.59;;;13.35;68.10
21980;BME280;11154;48.558;9.234;2023-04-25T00:45:00;96924.59;;;13.35;67.75
21980;BME280;11154;48.558;9.234;2023-04-25T00:47:04;96919.84;;;13.37;68.36
21980;BME280;11154;48.558;9.234;2023-04-25T00:49:06;96917.84;;;13.39;68.37
21980;BME280;11154;48.558;9.234;2023-04-25T00:51:16;96922.53;;;13.37;68.18
21980;BME280;11154;48.558;9.234;2023-04-25T00:53:21;96918.84;;;13.38;68.06
21980;BME280;11154;48.558;9.234;2023-04-25T00:55:22;96907.34;;;13.37;68.42
21980;BME280;11154;48.558;9.234;2023-04-25T00:57:24;96901.16;;;13.37;68.80
21980;BME280;11154;48.558;9.234;2023-04-25T00:59:27;96908.16;;;13.38;68.61
21980;BME280;11154;48.558;9.234;2023-04-25T01:01:30;96902.44;;;13.41;68.29
21980;BME280;11154;48.558;9.234;2023-04-25T01:03:34;96900.59;;;13.41;68.19
21980;BME280;11154;48.558;9.234;2023-04-25T01:05:41;96896.25;;;13.40;68.76
21980;BME280;11154;48.558;9.234;2023-04-25T01:07:43;96898.94;;;13.40;69.00
21980;BME280;11154;48.558;9.234;2023-04-25T01:09:45;96904.28;;;13.40;68.88
21980;BME280;11154;48.558;9.234;2023-04-25T01:11:47;96900.16;;;13.38;69.67
21980;BME280;11154;48.558;9.234;2023-04-25T01:13:50;96900.34;;;13.36;71.05
21980;BME280;11154;48.558;9.234;2023-04-25T01:15:52;96891.50;;;13.36;71.82
21980;BME280;11154;48.558;9.234;2023-04-25T01:17:54;96885.56;;;13.34;73.00
21980;BME280;11154;48.558;9.234;2023-04-25T01:19:57;96893.56;;;13.34;73.59
21980;BME280;11154;48.558;9.234;2023-04-25T01:22:00;96893.13;;;13.30;73.39
21980;BME280;11154;48.558;9.234;2023-04-25T01:24:02;96887.94;;;13.29;73.52
21980;BME280;11154;48.558;9.234;2023-04-25T01:26:06;96881.00;;;13.28;73.51
21980;BME280;11154;48.558;9.234;2023-04-25T01:28:07;96878.31;;;13.28;73.28
21980;BME280;11154;48.558;9.234;2023-04-25T01:30:10;96876.47;;;13.28;72.51
21980;BME280;11154;48.558;9.234;2023-04-25T01:32:13;96877.28;;;13.29;72.26
21980;BME280;11154;48.558;9.234;2023-04-25T01:34:15;96883.81;;;13.26;71.40
21980;BME280;11154;48.558;9.234;2023-04-25T01:36:17;96884.22;;;13.23;71.48
21980;BME280;11154;48.558;9.234;2023-04-25T01:38:20;96879.69;;;13.24;72.74
21980;BME280;11154;48.558;9.234;2023-04-25T01:40:22;96884.22;;;13.23;73.31
21980;BME280;11154;48.558;9.234;2023-04-25T01:42:25;96884.22;;;13.23;73.82
21980;BME280;11154;48.558;9.234;2023-04-25T01:44:27;96884.59;;;13.20;73.82
21980;BME280;11154;48.558;9.234;2023-04-25T01:46:29;96885.44;;;13.21;74.64
21980;BME280;11154;48.558;9.234;2023-04-25T01:48:30;96879.25;;;13.20;74.50
21980;BME280;11154;48.558;9.234;2023-04-25T01:50:32;96882.13;;;13.19;74.68
21980;BME280;11154;48.558;9.234;2023-04-25T01:52:34;96885.78;;;13.11;74.79
21980;BME280;11154;48.558;9.234;2023-04-25T01:54:37;96889.66;;;13.09;74.80
21980;BME280;11154;48.558;9.234;2023-04-25T01:56:49;96889.81;;;13.07;74.96
21980;BME280;11154;48.558;9.234;2023-04-25T01:58:51;96875.03;;;13.05;75.81
21980;BME280;11154;48.558;9.234;2023-04-25T02:00:53;96889.00;;;13.07;75.94
21980;BME280;11154;48.558;9.234;2023-04-25T02:02:57;96887.00;;;13.09;75.47
21980;BME280;11154;48.558;9.234;2023-04-25T02:04:59;96888.00;;;13.08;76.40
21980;BME280;11154;48.558;9.234;2023-04-25T02:07:01;96892.13;;;13.10;76.01
21980;BME280;11154;48.558;9.234;2023-04-25T02:09:03;96891.94;;;13.12;76.14
21980;BME280;11154;48.558;9.234;2023-04-25T02:11:06;96889.47;;;13.10;75.92
21980;BME280;11154;48.558;9.234;2023-04-25T02:13:08;96887.00;;;13.09;75.98
21980;BME280;11154;48.558;9.234;2023-04-25T02:15:10;96889.00;;;13.07;76.03
21980;BME280;11154;48.558;9.234;2023-04-25T02:17:12;96890.66;;;13.08;76.36
21980;BME280;11154;48.558;9.234;2023-04-25T02:19:13;96887.34;;;13.06;76.53
21980;BME280;11154;48.558;9.234;2023-04-25T02:21:15;96882.03;;;13.06;77.01
21980;BME280;11154;48.558;9.234;2023-04-25T02:23:17;96885.69;;;13.05;76.37
21980;BME280;11154;48.558;9.234;2023-04-25T02:25:19;96874.22;;;13.04;76.75
21980;BME280;11154;48.558;9.234;2023-04-25T02:27:22;96871.34;;;13.06;77.36
21980;BME280;11154;48.558;9.234;2023-04-25T02:29:24;96868.88;;;13.04;77.24
21980;BME280;11154;48.558;9.234;2023-04-25T02:31:25;96878.34;;;13.07;77.56
21980;BME280;11154;48.558;9.234;2023-04-25T02:33:27;96876.69;;;13.06;77.33
21980;BME280;11154;48.558;9.234;2023-04-25T02:35:29;96875.88;;;13.05;77.24
21980;BME280;11154;48.558;9.234;2023-04-25T02:37:31;96873.00;;;13.07;77.00
21980;BME280;11154;48.558;9.234;2023-04-25T02:39:32;96866.81;;;13.06;76.91
21980;BME280;11154;48.558;9.234;2023-04-25T02:41:34;96866.44;;;13.09;76.39
21980;BME280;11154;48.558;9.234;2023-04-25T02:43:38;96854.31;;;13.07;76.20
21980;BME280;11154;48.558;9.234;2023-04-25T02:45:40;96861.47;;;13.06;76.23
21980;BME280;11154;48.558;9.234;2023-04-25T02:47:41;96870.91;;;13.02;76.35
21980;BME280;11154;48.558;9.234;2023-04-25T02:49:43;96863.91;;;13.01;75.33
21980;BME280;11154;48.558;9.234;2023-04-25T02:51:45;96870.47;;;12.99;74.17
21980;BME280;11154;48.558;9.234;2023-04-25T02:53:47;96870.47;;;12.99;73.38
21980;BME280;11154;48.558;9.234;2023-04-25T02:55:48;96859.13;;;12.97;72.51
21980;BME280;11154;48.558;9.234;2023-04-25T02:57:50;96857.13;;;12.99;71.67
21980;BME280;11154;48.558;9.234;2023-04-25T02:59:53;96859.13;;;12.97;70.52
21980;BME280;11154;48.558;9.234;2023-04-25T03:01:55;96863.88;;;12.95;70.74
21980;BME280;11154;48.558;9.234;2023-04-25T03:03:56;96851.72;;;12.93;70.80
21980;BME280;11154;48.558;9.234;2023-04-25T03:05:58;96854.41;;;12.93;70.95
21980;BME280;11154;48.558;9.234;2023-04-25T03:08:00;96861.56;;;12.92;71.78
21980;BME280;11154;48.558;9.234;2023-04-25T03:10:01;96845.97;;;12.89;72.48
21980;BME280;11154;48.558;9.234;2023-04-25T03:12:03;96847.59;;;12.90;72.44
21980;BME280;11154;48.558;9.234;2023-04-25T03:14:05;96842.28;;;12.90;72.42
21980;BME280;11154;48.558;9.234;2023-04-25T03:16:08;96844.31;;;12.88;72.61
21980;BME280;11154;48.558;9.234;2023-04-25T03:18:10;96844.09;;;12.90;72.51
21980;BME280;11154;48.558;9.234;2023-04-25T03:20:12;96834.28;;;12.90;72.42
21980;BME280;11154;48.558;9.234;2023-04-25T03:22:13;96841.44;;;12.90;71.42
21980;BME280;11154;48.558;9.234;2023-04-25T03:24:15;96846.75;;;12.90;70.90
21980;BME280;11154;48.558;9.234;2023-04-25T03:26:17;96853.31;;;12.87;70.91
21980;BME280;11154;48.558;9.234;2023-04-25T03:28:18;96859.28;;;12.89;70.69
21980;BME280;11154;48.558;9.234;2023-04-25T03:30:20;96846.13;;;12.88;70.92
21980;BME280;11154;48.558;9.234;2023-04-25T03:32:23;96842.38;;;12.82;71.26
21980;BME280;11154;48.558;9.234;2023-04-25T03:34:25;96847.25;;;12.79;71.62
21980;BME280;11154;48.558;9.234;2023-04-25T03:36:27;96841.28;;;12.77;72.36
21980;BME280;11154;48.558;9.234;2023-04-25T03:38:29;96844.34;;;12.74;73.32
21980;BME280;11154;48.558;9.234;2023-04-25T03:40:31;96841.22;;;12.70;73.80
21980;BME280;11154;48.558;9.234;2023-04-25T03:42:32;96839.38;;;12.71;74.76
21980;BME280;11154;48.558;9.234;2023-04-25T03:44:34;96843.91;;;12.70;75.48
21980;BME280;11154;48.558;9.234;2023-04-25T03:46:36;96838.94;;;12.67;75.88
21980;BME280;11154;48.558;9.234;2023-04-25T03:48:39;96835.44;;;12.67;75.22
21980;BME280;11154;48.558;9.234;2023-04-25T03:50:41;96838.28;;;12.65;75.49
21980;BME280;11154;48.558;9.234;2023-04-25T03:52:43;96837.56;;;12.71;75.09
21980;BME280;11154;48.558;9.234;2023-04-25T03:54:45;96839.00;;;12.74;74.74
21980;BME280;11154;48.558;9.234;2023-04-25T03:56:46;96843.94;;;12.77;74.94
21980;BME280;11154;48.558;9.234;2023-04-25T03:58:48;96839.47;;;12.77;74.52
21980;BME280;11154;48.558;9.234;2023-04-25T04:00:50;96835.13;;;12.76;74.64
21980;BME280;11154;48.558;9.234;2023-04-25T04:02:52;96844.78;;;12.77;74.51
21980;BME280;11154;48.558;9.234;2023-04-25T04:04:55;96844.16;;;12.75;74.34
21980;BME280;11154;48.558;9.234;2023-04-25T04:06:57;96840.47;;;12.76;73.88
21980;BME280;11154;48.558;9.234;2023-04-25T04:08:59;96839.63;;;12.76;73.11
21980;BME280;11154;48.558;9.234;2023-04-25T04:11:01;96839.63;;;12.76;73.17
21980;BME280;11154;48.558;9.234;2023-04-25T04:13:03;96848.06;;;12.79;72.68
21980;BME280;11154;48.558;9.234;2023-04-25T04:15:06;96845.03;;;12.82;72.80
21980;BME280;11154;48.558;9.234;2023-04-25T04:17:08;96837.66;;;12.84;72.25
21980;BME280;11154;48.558;9.234;2023-04-25T04:19:10;96849.81;;;12.87;72.26
21980;BME280;11154;48.558;9.234;2023-04-25T04:21:13;96834.16;;;12.84;71.73
21980;BME280;11154;48.558;9.234;2023-04-25T04:23:15;96841.47;;;12.75;70.24
21980;BME280;11154;48.558;9.234;2023-04-25T04:25:17;96846.94;;;12.67;70.20
21980;BME280;11154;48.558;9.234;2023-04-25T04:27:19;96847.34;;;12.64;70.21
21980;BME280;11154;48.558;9.234;2023-04-25T04:29:21;96851.00;;;12.63;70.80
21980;BME280;11154;48.558;9.234;2023-04-25T04:31:23;96853.78;;;12.55;70.26
21980;BME280;11154;48.558;9.234;2023-04-25T04:33:25;96860.53;;;12.51;70.42
21980;BME280;11154;48.558;9.234;2023-04-25T04:35:26;96857.22;;;12.49;72.12
21980;BME280;11154;48.558;9.234;2023-04-25T04:37:29;96857.59;;;12.46;72.87
21980;BME280;11154;48.558;9.234;2023-04-25T04:39:31;96852.25;;;12.46;73.75
21980;BME280;11154;48.558;9.234;2023-04-25T04:41:33;96848.53;;;12.41;72.42
21980;BME280;11154;48.558;9.234;2023-04-25T04:43:34;96846.41;;;12.36;71.89
21980;BME280;11154;48.558;9.234;2023-04-25T04:45:37;96855.41;;;12.35;72.32
21980;BME280;11154;48.558;9.234;2023-04-25T04:47:40;96853.97;;;12.33;71.45
21980;BME280;11154;48.558;9.234;2023-04-25T04:49:42;96857.28;;;12.35;71.37
21980;BME280;11154;48.558;9.234;2023-04-25T04:51:44;96857.44;;;12.33;72.04
21980;BME280;11154;48.558;9.234;2023-04-25T04:53:48;96855.81;;;12.32;72.08
21980;BME280;11154;48.558;9.234;2023-04-25T04:55:50;96853.97;;;12.33;72.48
21980;BME280;11154;48.558;9.234;2023-04-25T04:57:52;96861.41;;;12.37;74.15
21980;BME280;11154;48.558;9.234;2023-04-25T04:59:54;96869.47;;;12.44;74.88
21980;BME280;11154;48.558;9.234;2023-04-25T05:01:55;96871.13;;;12.45;73.61
21980;BME280;11154;48.558;9.234;2023-04-25T05:03:57;96873.97;;;12.43;72.77
21980;BME280;11154;48.558;9.234;2023-04-25T05:06:00;96874.44;;;12.47;72.18
21980;BME280;11154;48.558;9.234;2023-04-25T05:08:02;96877.09;;;12.47;71.74
21980;BME280;11154;48.558;9.234;2023-04-25T05:10:07;96868.53;;;12.51;71.76
21980;BME280;11154;48.558;9.234;2023-04-25T05:12:09;96870.16;;;12.52;71.67
21980;BME280;11154;48.558;9.234;2023-04-25T05:14:10;96879.44;;;12.56;71.84
21980;BME280;11154;48.558;9.234;2023-04-25T05:16:12;96878.25;;;12.59;71.24
21980;BME280;11154;48.558;9.234;2023-04-25T05:18:14;96874.38;;;12.61;71.58
21980;BME280;11154;48.558;9.234;2023-04-25T05:20:16;96883.19;;;12.62;72.19
21980;BME280;11154;48.558;9.234;2023-04-25T05:22:19;96881.34;;;12.62;71.40
21980;BME280;11154;48.558;9.234;2023-04-25T05:24:20;96880.34;;;12.63;71.88
21980;BME280;11154;48.558;9.234;2023-04-25T05:26:24;96877.47;;;12.65;71.74
21980;BME280;11154;48.558;9.234;2023-04-25T05:28:25;96875.63;;;12.65;72.17
21980;BME280;11154;48.558;9.234;2023-04-25T05:30:27;96880.22;;;12.71;73.29
21980;BME280;11154;48.558;9.234;2023-04-25T05:32:29;96870.19;;;12.73;73.68
21980;BME280;11154;48.558;9.234;2023-04-25T05:34:31;96877.16;;;12.74;74.37
21980;BME280;11154;48.558;9.234;2023-04-25T05:36:32;96883.75;;;12.78;74.79
21980;BME280;11154;48.558;9.234;2023-04-25T05:38:34;96889.53;;;12.82;75.64
21980;BME280;11154;48.558;9.234;2023-04-25T05:40:36;96883.84;;;12.85;76.83
21980;BME280;11154;48.558;9.234;2023-04-25T05:42:39;96876.31;;;12.88;77.51
21980;BME280;11154;48.558;9.234;2023-04-25T05:44:41;96869.97;;;12.89;77.62
21980;BME280;11154;48.558;9.234;2023-04-25T05:46:42;96869.97;;;12.89;77.81
21980;BME280;11154;48.558;9.234;2023-04-25T05:48:44;96869.13;;;12.89;76.72
21980;BME280;11154;48.558;9.234;2023-04-25T05:50:46;96867.91;;;12.91;77.78
21980;BME280;11154;48.558;9.234;2023-04-25T05:52:48;96868.56;;;12.93;78.21
21980;BME280;11154;48.558;9.234;2023-04-25T05:54:50;96864.69;;;12.96;78.48
21980;BME280;11154;48.558;9.234;2023-04-25T05:56:51;96872.47;;;12.97;77.82
21980;BME280;11154;48.558;9.234;2023-04-25T05:58:55;96867.16;;;12.97;77.23
21980;BME280;11154;48.558;9.234;2023-04-25T06:00:56;96866.78;;;13.00;75.89
21980;BME280;11154;48.558;9.234;2023-04-25T06:02:58;96861.25;;;13.01;76.41
21980;BME280;11154;48.558;9.234;2023-04-25T06:05:00;96868.88;;;13.04;76.42
21980;BME280;11154;48.558;9.234;2023-04-25T06:07:03;96870.34;;;13.07;76.39
21980;BME280;11154;48.558;9.234;2023-04-25T06:09:05;96876.09;;;13.10;76.68
21980;BME280;11154;48.558;9.234;2023-04-25T06:11:06;96873.88;;;13.14;76.53
21980;BME280;11154;48.558;9.234;2023-04-25T06:13:08;96871.44;;;13.19;76.51
21980;BME280;11154;48.558;9.234;2023-04-25T06:15:11;96873.47;;;13.17;75.38
21980;BME280;11154;48.558;9.234;2023-04-25T06:17:13;96869.75;;;13.11;74.68
21980;BME280;11154;48.558;9.234;2023-04-25T06:19:15;96868.44;;;13.01;74.27
21980;BME280;11154;48.558;9.234;2023-04-25T06:21:17;96869.69;;;13.05;75.05
21980;BME280;11154;48.558;9.234;2023-04-25T06:23:18;96875.25;;;13.10;76.17
21980;BME280;11154;48.558;9.234;2023-04-25T06:25:20;96876.09;;;13.10;75.79
21980;BME280;11154;48.558;9.234;2023-04-25T06:27:22;96870.97;;;13.09;76.00
21980;BME280;11154;48.558;9.234;2023-04-25T06:29:24;96872.59;;;13.10;75.99
21980;BME280;11154;48.558;9.234;2023-04-25T06:31:27;96875.09;;;13.11;75.66
21980;BME280;11154;48.558;9.234;2023-04-25T06:33:29;96871.59;;;13.11;75.49
21980;BME280;11154;48.558;9.234;2023-04-25T06:35:31;96875.25;;;13.10;75.39
21980;BME280;11154;48.558;9.234;2023-04-25T06:37:33;96870.19;;;13.15;76.40
21980;BME280;11154;48.558;9.234;2023-04-25T06:39:34;96868.22;;;13.23;75.76
21980;BME280;11154;48.558;9.234;2023-04-25T06:41:36;96875.00;;;13.26;75.27
21980;BME280;11154;48.558;9.234;2023-04-25T06:43:38;96877.47;;;13.27;74.51
21980;BME280;11154;48.558;9.234;2023-04-25T06:45:39;96879.13;;;13.28;74.07
21980;BME280;11154;48.558;9.234;2023-04-25T06:47:47;96886.03;;;13.44;75.65
21980;BME280;11154;48.558;9.234;2023-04-25T06:49:49;96875.19;;;13.52;74.80
21980;BME280;11154;48.558;9.234;2023-04-25T06:51:51;96880.69;;;13.44;74.54
21980;BME280;11154;48.558;9.234;2023-04-25T06:53:53;96870.50;;;13.54;73.57
21980;BME280;11154;48.558;9.234;2023-04-25T06:55:58;96875.34;;;13.44;73.71
21980;BME280;11154;48.558;9.234;2023-04-25T06:58:01;96876.94;;;13.38;73.45
21980;BME280;11154;48.558;9.234;2023-04-25T07:00:05;96873.66;;;13.36;74.32
21980;BME280;11154;48.558;9.234;2023-04-25T07:02:09;96881.88;;;13.35;74.23
21980;BME280;11154;48.558;9.234;2023-04-25T07:04:13;96885.56;;;13.34;74.01
21980;BME280;11154;48.558;9.234;2023-04-25T07:06:15;96879.78;;;13.30;74.08
21980;BME280;11154;48.558;9.234;2023-04-25T07:08:17;96881.78;;;13.28;73.13
21980;BME280;11154;48.558;9.234;2023-04-25T07:10:18;96879.78;;;13.30;74.91
21980;BME280;11154;48.558;9.234;2023-04-25T07:12:21;96883.00;;;13.26;73.69
21980;BME280;11154;48.558;9.234;2023-04-25T07:14:23;96886.50;;;13.26;75.22
21980;BME280;11154;48.558;9.234;2023-04-25T07:16:25;96879.13;;;13.28;75.10
21980;BME280;11154;48.558;9.234;2023-04-25T07:18:27;96881.56;;;13.23;74.52
21980;BME280;11154;48.558;9.234;2023-04-25T07:20:30;96887.09;;;13.22;74.49
21980;BME280;11154;48.558;9.234;2023-04-25T07:22:33;96879.25;;;13.20;74.80
21980;BME280;11154;48.558;9.234;2023-04-25T07:24:34;96883.78;;;13.20;75.99
21980;BME280;11154;48.558;9.234;2023-04-25T07:26:36;96886.66;;;13.18;76.24
21980;BME280;11154;48.558;9.234;2023-04-25T07:28:38;96883.78;;;13.20;76.76
21980;BME280;11154;48.558;9.234;2023-04-25T07:30:39;96888.47;;;13.18;77.17
21980;BME280;11154;48.558;9.234;2023-04-25T07:32:41;96895.28;;;13.20;77.92
21980;BME280;11154;48.558;9.234;2023-04-25T07:34:43;96896.50;;;13.18;78.11
21980;BME280;11154;48.558;9.234;2023-04-25T07:36:46;96891.56;;;13.15;77.54
21980;BME280;11154;48.558;9.234;2023-04-25T07:38:47;96893.19;;;13.16;77.61
21980;BME280;11154;48.558;9.234;2023-04-25T07:40:49;96896.25;;;13.13;77.27
21980;BME280;11154;48.558;9.234;2023-04-25T07:42:51;96896.44;;;13.11;78.61
21980;BME280;11154;48.558;9.234;2023-04-25T07:44:53;96892.50;;;13.07;79.13
21980;BME280;11154;48.558;9.234;2023-04-25T07:46:54;96896.78;;;13.02;78.99
21980;BME280;11154;48.558;9.234;2023-04-25T07:48:56;96903.31;;;12.99;79.75
21980;BME280;11154;48.558;9.234;2023-04-25T07:50:58;96908.47;;;13.01;79.06
21980;BME280;11154;48.558;9.234;2023-04-25T07:53:01;96912.97;;;13.00;78.64
21980;BME280;11154;48.558;9.234;2023-04-25T07:55:04;96916.06;;;13.04;79.41
21980;BME280;11154;48.558;9.234;2023-04-25T07:57:05;96917.72;;;13.05;79.69
21980;BME280;11154;48.558;9.234;2023-04-25T07:59:07;96918.94;;;13.02;80.09
21980;BME280;11154;48.558;9.234;2023-04-25T08:01:09;96922.00;;;12.99;80.17
21980;BME280;11154;48.558;9.234;2023-04-25T08:03:11;96923.19;;;12.97;78.79
21980;BME280;11154;48.558;9.234;2023-04-25T08:05:16;96927.91;;;12.95;79.31
21980;BME280;11154;48.558;9.234;2023-04-25T08:07:18;96935.28;;;12.93;79.06
21980;BME280;11154;48.558;9.234;2023-04-25T08:09:21;96939.16;;;12.91;79.98
21980;BME280;11154;48.558;9.234;2023-04-25T08:11:23;96938.88;;;12.86;79.44
21980;BME280;11154;48.558;9.234;2023-04-25T08:13:25;96942.84;;;12.75;78.65
21980;BME280;11154;48.558;9.234;2023-04-25T08:15:27;96941.94;;;12.68;76.40
21980;BME280;11154;48.558;9.234;2023-04-25T08:17:28;96950.97;;;12.67;76.30
21980;BME280;11154;48.558;9.234;2023-04-25T08:19:30;96955.19;;;12.76;77.68
21980;BME280;11154;48.558;9.234;2023-04-25T08:21:32;96950.16;;;12.67;77.05
21980;BME280;11154;48.558;9.234;2023-04-25T08:23:34;96964.03;;;12.62;77.72
21980;BME280;11154;48.558;9.234;2023-04-25T08:25:37;96966.16;;;12.52;76.41
21980;BME280;11154;48.558;9.234;2023-04-25T08:27:38;96962.88;;;12.50;77.50
21980;BME280;11154;48.558;9.234;2023-04-25T08:29:41;96961.69;;;12.38;76.10
21980;BME280;11154;48.558;9.234;2023-04-25T08:31:42;96968.59;;;12.33;75.58
21980;BME280;11154;48.558;9.234;2023-04-25T08:33:44;96980.47;;;12.30;74.71
21980;BME280;11154;48.558;9.234;2023-04-25T08:35:46;96976.13;;;12.29;75.29
21980;BME280;11154;48.558;9.234;2023-04-25T08:37:47;96973.47;;;12.29;75.29
21980;BME280;11154;48.558;9.234;2023-04-25T08:39:51;96985.13;;;12.28;74.76
21980;BME280;11154;48.558;9.234;2023-04-25T08:41:55;96989.09;;;12.32;75.35
21980;BME280;11154;48.558;9.234;2023-04-25T08:43:57;96990.38;;;12.36;76.23
21980;BME280;11154;48.558;9.234;2023-04-25T08:46:01;96999.66;;;12.40;77.90
21980;BME280;11154;48.558;9.234;2023-04-25T08:48:04;96995.97;;;12.41;77.09
21980;BME280;11154;48.558;9.234;2023-04-25T08:50:07;97008.03;;;12.37;75.15
21980;BME280;11154;48.558;9.234;2023-04-25T08:52:09;97001.13;;;12.28;73.86
21980;BME280;11154;48.558;9.234;2023-04-25T08:54:12;97009.13;;;12.28;75.13
21980;BME280;11154;48.558;9.234;2023-04-25T08:56:16;97014.47;;;12.28;75.19
21980;BME280;11154;48.558;9.234;2023-04-25T08:58:20;97012.44;;;12.30;76.83
21980;BME280;11154;48.558;9.234;2023-04-25T09:00:22;97018.31;;;12.40;79.27
21980;BME280;11154;48.558;9.234;2023-04-25T09:02:24;97015.19;;;12.51;80.18
21980;BME280;11154;48.558;9.234;2023-04-25T09:04:26;97019.13;;;12.55;79.89
21980;BME280;11154;48.558;9.234;2023-04-25T09:06:28;97024.13;;;12.58;80.57
21980;BME280;11154;48.558;9.234;2023-04-25T09:08:30;97030.72;;;12.62;80.10
21980;BME280;11154;48.558;9.234;2023-04-25T09:10:33;97032.38;;;12.63;79.15
21980;BME280;11154;48.558;9.234;2023-04-25T09:12:35;97027.97;;;12.70;79.68
21980;BME280;11154;48.558;9.234;2023-04-25T09:14:38;97035.75;;;12.72;80.08
21980;BME280;11154;48.558;9.234;2023-04-25T09:17:00;97034.38;;;12.76;80.44
21980;BME280;11154;48.558;9.234;2023-04-25T09:19:02;97035.03;;;12.78;80.97
21980;BME280;11154;48.558;9.234;2023-04-25T09:21:08;97034.47;;;12.82;82.02
21980;BME280;11154;48.558;9.234;2023-04-25T09:23:10;97039.81;;;12.82;82.17
21980;BME280;11154;48.558;9.234;2023-04-25T09:25:12;97049.47;;;12.83;82.26
21980;BME280;11154;48.558;9.234;2023-04-25T09:27:18;97049.28;;;12.85;82.33
21980;BME280;11154;48.558;9.234;2023-04-25T09:29:29;97050.09;;;12.85;82.46
21980;BME280;11154;48.558;9.234;2023-04-25T09:31:32;97058.47;;;12.82;82.51
21980;BME280;11154;48.558;9.234;2023-04-25T09:33:34;97066.84;;;12.79;81.57
21980;BME280;11154;48.558;9.234;2023-04-25T09:35:37;97061.25;;;12.74;80.21
21980;BME280;11154;48.558;9.234;2023-04-25T09:37:40;97068.59;;;12.72;79.49
21980;BME280;11154;48.558;9.234;2023-04-25T09:39:44;97073.78;;;12.74;80.50
21980;BME280;11154;48.558;9.234;2023-04-25T09:41:46;97083.41;;;12.75;80.47
21980;BME280;11154;48.558;9.234;2023-04-25T09:43:49;97075.31;;;12.68;80.73
21980;BME280;11154;48.558;9.234;2023-04-25T09:45:53;97085.19;;;12.68;81.30
21980;BME280;11154;48.558;9.234;2023-04-25T09:48:03;97086.34;;;12.65;80.97
21980;BME280;11154;48.558;9.234;2023-04-25T09:50:13;97090.88;;;12.65;81.76
21980;BME280;11154;48.558;9.234;2023-04-25T09:52:16;97093.34;;;12.66;82.54
21980;BME280;11154;48.558;9.234;2023-04-25T09:54:18;97093.00;;;12.69;82.77
21980;BME280;11154;48.558;9.234;2023-04-25T09:56:21;97091.78;;;12.72;83.51
21980;BME280;11154;48.558;9.234;2023-04-25T09:58:24;97099.97;;;12.70;82.40
21980;BME280;11154;48.558;9.234;2023-04-25T10:00:26;97099.97;;;12.70;82.47
21980;BME280;11154;48.558;9.234;2023-04-25T10:02:28;97103.00;;;12.67;81.64
21980;BME280;11154;48.558;9.234;2023-04-25T10:04:34;97104.31;;;12.71;82.00
21980;BME280;11154;48.558;9.234;2023-04-25T10:06:37;97102.66;;;12.70;82.11
21980;BME280;11154;48.558;9.234;2023-04-25T10:08:40;97102.66;;;12.70;82.50
21980;BME280;11154;48.558;9.234;2023-04-25T10:10:44;97097.66;;;12.67;82.62
21980;BME280;11154;48.558;9.234;2023-04-25T10:12:46;97099.88;;;12.64;81.85
21980;BME280;11154;48.558;9.234;2023-04-25T10:14:48;97112.41;;;12.63;81.19
21980;BME280;11154;48.558;9.234;2023-04-25T10:16:50;97108.72;;;12.64;80.42
21980;BME280;11154;48.558;9.234;2023-04-25T10:18:54;97104.75;;;12.60;78.69
21980;BME280;11154;48.558;9.234;2023-04-25T10:20:59;97113.59;;;12.61;77.49
21980;BME280;11154;48.558;9.234;2023-04-25T10:23:08;97117.47;;;12.58;77.52
21980;BME280;11154;48.558;9.234;2023-04-25T10:25:13;97117.47;;;12.58;77.67
21980;BME280;11154;48.558;9.234;2023-04-25T10:27:16;97122.97;;;12.57;78.75
21980;BME280;11154;48.558;9.234;2023-04-25T10:29:22;97126.81;;;12.54;78.85
21980;BME280;11154;48.558;9.234;2023-04-25T10:31:26;97129.22;;;12.49;79.18
21980;BME280;11154;48.558;9.234;2023-04-25T10:33:34;97124.97;;;12.40;78.52
21980;BME280;11154;48.558;9.234;2023-04-25T10:35:37;97126.81;;;12.40;79.46
21980;BME280;11154;48.558;9.234;2023-04-25T10:37:59;97129.28;;;12.27;77.74
21980;BME280;11154;48.558;9.234;2023-04-25T10:40:08;97129.81;;;12.23;78.11
21980;BME280;11154;48.558;9.234;2023-04-25T10:42:11;97134.50;;;12.21;78.70
21980;BME280;11154;48.558;9.234;2023-04-25T10:44:13;97143.53;;;12.20;79.17
21980;BME280;11154;48.558;9.234;2023-04-25T10:46:17;97140.00;;;12.19;79.37
21980;BME280;11154;48.558;9.234;2023-04-25T10:48:25;97144.25;;;12.14;79.80